sensor_id;sensor_type;location;lat;lon;timestamp;P1;P2;P0
40371;PMS5003;28564;53.346;-6.554;2023-03-05T00:01:11;42;33;
40371;PMS5003;28564;53.346;-6.554;2023-03-05T00:03:40;47;40;
40371;PMS5003;28564;53.346;-6.554;2023-03-05T00:06:07;42;35;
40371;PMS5003;28564;53.346;-6.554;2023-03-05T00:08:34;38;31;
40371;PMS5003;28564;53.346;-6.554;2023-03-05T00:11:03;33;29;
40371;PMS5003;28564;53.346;-6.554;2023-03-05T00:13:32;40;36;
40371;PMS5003;28564;53.346;-6.554;2023-03-05T00:16:01;39;28;
40371;PMS5003;28564;53.346;-6.554;2023-03-05T00:18:29;31;27;
40371;PMS5003;28564;53.346;-6.554;2023-03-05T00:20:56;33;31;
40371;PMS5003;28564;53.346;-6.554;2023-03-05T00:23:24;41;33;
40371;PMS5003;28564;53.346;-6.554;2023-03-05T00:25:53;34;33;
40371;PMS5003;28564;53.346;-6.554;2023-03-05T00:28:20;39;31;
40371;PMS5003;28564;53.346;-6.554;2023-03-05T00:30:47;43;32;
40371;PMS5003;28564;53.346;-6.554;2023-03-05T00:33:15;36;31;
40371;PMS5003;28564;53.346;-6.554;2023-03-05T00:35:43;36;27;
40371;PMS5003;28564;53.346;-6.554;2023-03-05T00:38:12;28;25;
40371;PMS5003;28564;53.346;-6.554;2023-03-05T00:40:39;28;25;
40371;PMS5003;28564;53.346;-6.554;2023-03-05T00:43:07;25;24;
40371;PMS5003;28564;53.346;-6.554;2023-03-05T00:45:35;35;28;
40371;PMS5003;28564;53.346;-6.554;2023-03-05T00:48:03;28;26;
40371;PMS5003;28564;53.346;-6.554;2023-03-05T00:50:31;36;32;
40371;PMS5003;28564;53.346;-6.554;2023-03-05T00:52:58;38;33;
40371;PMS5003;28564;53.346;-6.554;2023-03-05T00:55:25;33;31;
40371;PMS5003;28564;53.346;-6.554;2023-03-05T00:57:53;43;34;
40371;PMS5003;28564;53.346;-6.554;2023-03-05T01:00:20;34;32;
40371;PMS5003;28564;53.346;-6.554;2023-03-05T01:02:47;49;38;
40371;PMS5003;28564;53.346;-6.554;2023-03-05T01:05:15;47;38;
40371;PMS5003;28564;53.346;-6.554;2023-03-05T01:07:42;45;39;
40371;PMS5003;28564;53.346;-6.554;2023-03-05T01:10:11;39;33;
40371;PMS5003;28564;53.346;-6.554;2023-03-05T01:12:38;38;33;
40371;PMS5003;28564;53.346;-6.554;2023-03-05T01:15:06;38;33;
40371;PMS5003;28564;53.346;-6.554;2023-03-05T01:17:35;40;36;
40371;PMS5003;28564;53.346;-6.554;2023-03-05T01:20:02;41;37;
40371;PMS5003;28564;53.346;-6.554;2023-03-05T01:22:31;41;36;
40371;PMS5003;28564;53.346;-6.554;2023-03-05T01:24:58;37;33;
40371;PMS5003;28564;53.346;-6.554;2023-03-05T01:27:26;36;34;
40371;PMS5003;28564;53.346;-6.554;2023-03-05T01:29:54;43;36;
40371;PMS5003;28564;53.346;-6.554;2023-03-05T01:32:21;31;31;
40371;PMS5003;28564;53.346;-6.554;2023-03-05T01:34:49;41;36;
40371;PMS5003;28564;53.346;-6.554;2023-03-05T01:37:16;46;34;
40371;PMS5003;28564;53.346;-6.554;2023-03-05T01:39:43;33;30;
40371;PMS5003;28564;53.346;-6.554;2023-03-05T01:42:11;31;25;
40371;PMS5003;28564;53.346;-6.554;2023-03-05T01:44:38;44;33;
40371;PMS5003;28564;53.346;-6.554;2023-03-05T01:47:05;32;29;
40371;PMS5003;28564;53.346;-6.554;2023-03-05T01:49:32;35;32;
40371;PMS5003;28564;53.346;-6.554;2023-03-05T01:52:04;30;27;
40371;PMS5003;28564;53.346;-6.554;2023-03-05T01:54:36;36;26;
40371;PMS5003;28564;53.346;-6.554;2023-03-05T01:57:07;34;31;
40371;PMS5003;28564;53.346;-6.554;2023-03-05T01:59:38;45;34;
40371;PMS5003;28564;53.346;-6.554;2023-03-05T02:02:08;37;31;
40371;PMS5003;28564;53.346;-6.554;2023-03-05T02:04:37;39;32;
40371;PMS5003;28564;53.346;-6.554;2023-03-05T02:07:08;38;31;
40371;PMS5003;28564;53.346;-6.554;2023-03-05T02:09:36;40;32;
40371;PMS5003;28564;53.346;-6.554;2023-03-05T02:12:04;30;27;
40371;PMS5003;28564;53.346;-6.554;2023-03-05T02:14:32;44;32;
40371;PMS5003;28564;53.346;-6.554;2023-03-05T02:17:01;39;33;
40371;PMS5003;28564;53.346;-6.554;2023-03-05T02:19:28;28;25;
40371;PMS5003;28564;53.346;-6.554;2023-03-05T02:22:13;41;32;
40371;PMS5003;28564;53.346;-6.554;2023-03-05T02:24:40;34;30;
40371;PMS5003;28564;53.346;-6.554;2023-03-05T02:27:07;30;29;
40371;PMS5003;28564;53.346;-6.554;2023-03-05T02:29:35;31;25;
40371;PMS5003;28564;53.346;-6.554;2023-03-05T02:32:07;36;33;
40371;PMS5003;28564;53.346;-6.554;2023-03-05T02:34:35;45;33;
40371;PMS5003;28564;53.346;-6.554;2023-03-05T02:37:03;41;32;
40371;PMS5003;28564;53.346;-6.554;2023-03-05T02:39:31;44;33;
40371;PMS5003;28564;53.346;-6.554;2023-03-05T02:41:59;32;30;
40371;PMS5003;28564;53.346;-6.554;2023-03-05T02:44:26;30;24;
40371;PMS5003;28564;53.346;-6.554;2023-03-05T02:46:54;32;26;
40371;PMS5003;28564;53.346;-6.554;2023-03-05T02:49:21;32;29;
40371;PMS5003;28564;53.346;-6.554;2023-03-05T02:51:49;36;32;
40371;PMS5003;28564;53.346;-6.554;2023-03-05T02:54:16;31;27;
40371;PMS5003;28564;53.346;-6.554;2023-03-05T02:56:43;30;25;
40371;PMS5003;28564;53.346;-6.554;2023-03-05T02:59:10;43;32;
40371;PMS5003;28564;53.346;-6.554;2023-03-05T03:01:38;33;27;
40371;PMS5003;28564;53.346;-6.554;2023-03-05T03:04:05;32;29;
40371;PMS5003;28564;53.346;-6.554;2023-03-05T03:06:32;29;27;
40371;PMS5003;28564;53.346;-6.554;2023-03-05T03:08:59;34;34;
40371;PMS5003;28564;53.346;-6.554;2023-03-05T03:11:27;36;31;
40371;PMS5003;28564;53.346;-6.554;2023-03-05T03:13:54;48;29;
40371;PMS5003;28564;53.346;-6.554;2023-03-05T03:16:22;32;29;
40371;PMS5003;28564;53.346;-6.554;2023-03-05T03:18:49;37;29;
40371;PMS5003;28564;53.346;-6.554;2023-03-05T03:21:17;31;27;
40371;PMS5003;28564;53.346;-6.554;2023-03-05T03:23:47;30;24;
40371;PMS5003;28564;53.346;-6.554;2023-03-05T03:26:14;32;29;
40371;PMS5003;28564;53.346;-6.554;2023-03-05T03:28:41;31;30;
40371;PMS5003;28564;53.346;-6.554;2023-03-05T03:31:09;29;26;
40371;PMS5003;28564;53.346;-6.554;2023-03-05T03:33:36;29;23;
40371;PMS5003;28564;53.346;-6.554;2023-03-05T03:36:03;29;26;
40371;PMS5003;28564;53.346;-6.554;2023-03-05T03:38:32;26;26;
40371;PMS5003;28564;53.346;-6.554;2023-03-05T03:40:59;37;31;
40371;PMS5003;28564;53.346;-6.554;2023-03-05T03:43:26;31;30;
40371;PMS5003;28564;53.346;-6.554;2023-03-05T03:45:54;27;26;
40371;PMS5003;28564;53.346;-6.554;2023-03-05T03:48:21;30;27;
40371;PMS5003;28564;53.346;-6.554;2023-03-05T03:50:48;34;23;
40371;PMS5003;28564;53.346;-6.554;2023-03-05T03:53:15;29;27;
40371;PMS5003;28564;53.346;-6.554;2023-03-05T03:55:43;32;29;
40371;PMS5003;28564;53.346;-6.554;2023-03-05T03:58:10;30;26;
40371;PMS5003;28564;53.346;-6.554;2023-03-05T04:00:38;24;22;
40371;PMS5003;28564;53.346;-6.554;2023-03-05T04:03:06;31;26;
40371;PMS5003;28564;53.346;-6.554;2023-03-05T04:05:33;25;24;
40371;PMS5003;28564;53.346;-6.554;2023-03-05T04:08:00;32;27;
40371;PMS5003;28564;53.346;-6.554;2023-03-05T04:10:27;34;26;
40371;PMS5003;28564;53.346;-6.554;2023-03-05T04:12:55;32;26;
40371;PMS5003;28564;53.346;-6.554;2023-03-05T04:15:22;31;26;
40371;PMS5003;28564;53.346;-6.554;2023-03-05T04:17:49;38;33;
40371;PMS5003;28564;53.346;-6.554;2023-03-05T04:20:16;32;29;
40371;PMS5003;28564;53.346;-6.554;2023-03-05T04:22:44;36;30;
40371;PMS5003;28564;53.346;-6.554;2023-03-05T04:25:11;29;26;
40371;PMS5003;28564;53.346;-6.554;2023-03-05T04:27:38;33;30;
40371;PMS5003;28564;53.346;-6.554;2023-03-05T04:30:06;33;30;
40371;PMS5003;28564;53.346;-6.554;2023-03-05T04:32:36;36;33;
40371;PMS5003;28564;53.346;-6.554;2023-03-05T04:35:04;29;26;
40371;PMS5003;28564;53.346;-6.554;2023-03-05T04:37:31;32;26;
40371;PMS5003;28564;53.346;-6.554;2023-03-05T04:39:58;30;25;
40371;PMS5003;28564;53.346;-6.554;2023-03-05T04:42:26;30;28;
40371;PMS5003;28564;53.346;-6.554;2023-03-05T04:44:54;33;27;
40371;PMS5003;28564;53.346;-6.554;2023-03-05T04:47:21;28;26;
40371;PMS5003;28564;53.346;-6.554;2023-03-05T04:49:48;28;27;
40371;PMS5003;28564;53.346;-6.554;2023-03-05T04:52:15;32;26;
40371;PMS5003;28564;53.346;-6.554;2023-03-05T04:54:43;29;22;
40371;PMS5003;28564;53.346;-6.554;2023-03-05T04:57:11;31;29;
40371;PMS5003;28564;53.346;-6.554;2023-03-05T04:59:38;30;25;
40371;PMS5003;28564;53.346;-6.554;2023-03-05T05:02:06;25;22;
40371;PMS5003;28564;53.346;-6.554;2023-03-05T05:04:33;29;20;
40371;PMS5003;28564;53.346;-6.554;2023-03-05T05:07:01;25;23;
40371;PMS5003;28564;53.346;-6.554;2023-03-05T05:09:29;29;24;
40371;PMS5003;28564;53.346;-6.554;2023-03-05T05:11:56;26;23;
40371;PMS5003;28564;53.346;-6.554;2023-03-05T05:14:24;32;26;
40371;PMS5003;28564;53.346;-6.554;2023-03-05T05:16:52;25;20;
40371;PMS5003;28564;53.346;-6.554;2023-03-05T05:19:19;25;23;
40371;PMS5003;28564;53.346;-6.554;2023-03-05T05:21:46;26;24;
40371;PMS5003;28564;53.346;-6.554;2023-03-05T05:24:14;26;22;
40371;PMS5003;28564;53.346;-6.554;2023-03-05T05:26:41;31;24;
40371;PMS5003;28564;53.346;-6.554;2023-03-05T05:29:09;29;23;
40371;PMS5003;28564;53.346;-6.554;2023-03-05T05:31:35;29;28;
40371;PMS5003;28564;53.346;-6.554;2023-03-05T05:34:03;32;30;
40371;PMS5003;28564;53.346;-6.554;2023-03-05T05:36:30;35;28;
40371;PMS5003;28564;53.346;-6.554;2023-03-05T05:38:56;36;28;
40371;PMS5003;28564;53.346;-6.554;2023-03-05T05:41:23;32;26;
40371;PMS5003;28564;53.346;-6.554;2023-03-05T05:43:51;23;21;
40371;PMS5003;28564;53.346;-6.554;2023-03-05T05:46:19;27;22;
40371;PMS5003;28564;53.346;-6.554;2023-03-05T05:48:47;30;23;
40371;PMS5003;28564;53.346;-6.554;2023-03-05T05:51:16;28;26;
40371;PMS5003;28564;53.346;-6.554;2023-03-05T05:53:45;32;29;
40371;PMS5003;28564;53.346;-6.554;2023-03-05T05:56:13;33;30;
40371;PMS5003;28564;53.346;-6.554;2023-03-05T05:58:42;32;25;
40371;PMS5003;28564;53.346;-6.554;2023-03-05T06:01:11;30;26;
40371;PMS5003;28564;53.346;-6.554;2023-03-05T06:03:39;30;24;
40371;PMS5003;28564;53.346;-6.554;2023-03-05T06:06:08;25;25;
40371;PMS5003;28564;53.346;-6.554;2023-03-05T06:08:37;26;21;
40371;PMS5003;28564;53.346;-6.554;2023-03-05T06:11:04;35;28;
40371;PMS5003;28564;53.346;-6.554;2023-03-05T06:13:32;31;24;
40371;PMS5003;28564;53.346;-6.554;2023-03-05T06:16:01;29;28;
40371;PMS5003;28564;53.346;-6.554;2023-03-05T06:18:30;33;21;
40371;PMS5003;28564;53.346;-6.554;2023-03-05T06:20:59;25;22;
40371;PMS5003;28564;53.346;-6.554;2023-03-05T06:23:28;31;29;
40371;PMS5003;28564;53.346;-6.554;2023-03-05T06:25:57;35;28;
40371;PMS5003;28564;53.346;-6.554;2023-03-05T06:28:26;32;24;
40371;PMS5003;28564;53.346;-6.554;2023-03-05T06:30:59;33;31;
40371;PMS5003;28564;53.346;-6.554;2023-03-05T06:33:28;32;29;
40371;PMS5003;28564;53.346;-6.554;2023-03-05T06:35:56;31;26;
40371;PMS5003;28564;53.346;-6.554;2023-03-05T06:38:23;30;28;
40371;PMS5003;28564;53.346;-6.554;2023-03-05T06:40:50;25;20;
40371;PMS5003;28564;53.346;-6.554;2023-03-05T06:43:18;29;25;
40371;PMS5003;28564;53.346;-6.554;2023-03-05T06:45:45;33;29;
40371;PMS5003;28564;53.346;-6.554;2023-03-05T06:48:12;28;26;
40371;PMS5003;28564;53.346;-6.554;2023-03-05T06:50:40;28;24;
40371;PMS5003;28564;53.346;-6.554;2023-03-05T06:53:06;36;26;
40371;PMS5003;28564;53.346;-6.554;2023-03-05T06:55:35;25;21;
40371;PMS5003;28564;53.346;-6.554;2023-03-05T06:58:02;25;23;
40371;PMS5003;28564;53.346;-6.554;2023-03-05T07:00:30;26;25;
40371;PMS5003;28564;53.346;-6.554;2023-03-05T07:02:57;27;22;
40371;PMS5003;28564;53.346;-6.554;2023-03-05T07:05:24;33;29;
40371;PMS5003;28564;53.346;-6.554;2023-03-05T07:07:52;24;19;
40371;PMS5003;28564;53.346;-6.554;2023-03-05T07:10:19;24;19;
40371;PMS5003;28564;53.346;-6.554;2023-03-05T07:12:46;32;29;
40371;PMS5003;28564;53.346;-6.554;2023-03-05T07:15:13;28;23;
40371;PMS5003;28564;53.346;-6.554;2023-03-05T07:17:41;29;25;
40371;PMS5003;28564;53.346;-6.554;2023-03-05T07:20:08;35;30;
40371;PMS5003;28564;53.346;-6.554;2023-03-05T07:22:36;24;23;
40371;PMS5003;28564;53.346;-6.554;2023-03-05T07:25:04;36;30;
40371;PMS5003;28564;53.346;-6.554;2023-03-05T07:27:33;36;32;
40371;PMS5003;28564;53.346;-6.554;2023-03-05T07:30:01;29;26;
40371;PMS5003;28564;53.346;-6.554;2023-03-05T07:32:28;31;28;
40371;PMS5003;28564;53.346;-6.554;2023-03-05T07:34:56;26;23;
40371;PMS5003;28564;53.346;-6.554;2023-03-05T07:37:23;22;21;
40371;PMS5003;28564;53.346;-6.554;2023-03-05T07:39:50;27;23;
40371;PMS5003;28564;53.346;-6.554;2023-03-05T07:42:17;29;27;
40371;PMS5003;28564;53.346;-6.554;2023-03-05T07:44:44;30;25;
40371;PMS5003;28564;53.346;-6.554;2023-03-05T07:47:11;29;24;
40371;PMS5003;28564;53.346;-6.554;2023-03-05T07:49:39;37;30;
40371;PMS5003;28564;53.346;-6.554;2023-03-05T07:52:07;30;25;
40371;PMS5003;28564;53.346;-6.554;2023-03-05T07:54:37;31;26;
40371;PMS5003;28564;53.346;-6.554;2023-03-05T07:57:05;42;35;
40371;PMS5003;28564;53.346;-6.554;2023-03-05T07:59:33;31;26;
40371;PMS5003;28564;53.346;-6.554;2023-03-05T08:02:01;37;31;
40371;PMS5003;28564;53.346;-6.554;2023-03-05T08:04:28;34;27;
40371;PMS5003;28564;53.346;-6.554;2023-03-05T08:06:55;38;31;
40371;PMS5003;28564;53.346;-6.554;2023-03-05T08:09:23;27;27;
40371;PMS5003;28564;53.346;-6.554;2023-03-05T08:11:50;25;24;
40371;PMS5003;28564;53.346;-6.554;2023-03-05T08:14:17;31;25;
40371;PMS5003;28564;53.346;-6.554;2023-03-05T08:16:44;37;31;
40371;PMS5003;28564;53.346;-6.554;2023-03-05T08:19:11;31;25;
40371;PMS5003;28564;53.346;-6.554;2023-03-05T08:21:39;30;26;
40371;PMS5003;28564;53.346;-6.554;2023-03-05T08:24:07;31;27;
40371;PMS5003;28564;53.346;-6.554;2023-03-05T08:26:37;27;26;
40371;PMS5003;28564;53.346;-6.554;2023-03-05T08:29:04;35;29;
40371;PMS5003;28564;53.346;-6.554;2023-03-05T08:31:32;31;27;
40371;PMS5003;28564;53.346;-6.554;2023-03-05T08:33:59;31;27;
40371;PMS5003;28564;53.346;-6.554;2023-03-05T08:36:28;34;32;
40371;PMS5003;28564;53.346;-6.554;2023-03-05T08:38:55;35;25;
40371;PMS5003;28564;53.346;-6.554;2023-03-05T08:41:22;33;30;
40371;PMS5003;28564;53.346;-6.554;2023-03-05T08:43:48;40;30;
40371;PMS5003;28564;53.346;-6.554;2023-03-05T08:46:16;34;31;
40371;PMS5003;28564;53.346;-6.554;2023-03-05T08:48:43;31;25;
40371;PMS5003;28564;53.346;-6.554;2023-03-05T08:51:12;34;31;
40371;PMS5003;28564;53.346;-6.554;2023-03-05T08:53:41;29;24;
40371;PMS5003;28564;53.346;-6.554;2023-03-05T08:56:09;31;29;
40371;PMS5003;28564;53.346;-6.554;2023-03-05T08:58:36;21;21;
40371;PMS5003;28564;53.346;-6.554;2023-03-05T09:01:05;31;30;
40371;PMS5003;28564;53.346;-6.554;2023-03-05T09:03:33;26;24;
40371;PMS5003;28564;53.346;-6.554;2023-03-05T09:06:01;33;28;
40371;PMS5003;28564;53.346;-6.554;2023-03-05T09:08:30;31;26;
40371;PMS5003;28564;53.346;-6.554;2023-03-05T09:10:59;28;22;
40371;PMS5003;28564;53.346;-6.554;2023-03-05T09:13:27;35;30;
40371;PMS5003;28564;53.346;-6.554;2023-03-05T09:15:54;34;28;
40371;PMS5003;28564;53.346;-6.554;2023-03-05T09:18:22;29;27;
40371;PMS5003;28564;53.346;-6.554;2023-03-05T09:20:49;33;27;
40371;PMS5003;28564;53.346;-6.554;2023-03-05T09:23:16;30;29;
40371;PMS5003;28564;53.346;-6.554;2023-03-05T09:25:44;29;27;
40371;PMS5003;28564;53.346;-6.554;2023-03-05T09:28:11;28;22;
40371;PMS5003;28564;53.346;-6.554;2023-03-05T09:30:39;32;26;
40371;PMS5003;28564;53.346;-6.554;2023-03-05T09:33:06;32;27;
40371;PMS5003;28564;53.346;-6.554;2023-03-05T09:35:34;25;21;
40371;PMS5003;28564;53.346;-6.554;2023-03-05T09:38:02;36;28;
40371;PMS5003;28564;53.346;-6.554;2023-03-05T09:40:31;23;21;
40371;PMS5003;28564;53.346;-6.554;2023-03-05T09:43:10;34;31;
40371;PMS5003;28564;53.346;-6.554;2023-03-05T09:45:53;28;23;
40371;PMS5003;28564;53.346;-6.554;2023-03-05T09:48:31;27;26;
40371;PMS5003;28564;53.346;-6.554;2023-03-05T09:51:10;19;16;
40371;PMS5003;28564;53.346;-6.554;2023-03-05T09:53:43;24;21;
40371;PMS5003;28564;53.346;-6.554;2023-03-05T09:56:17;26;23;
40371;PMS5003;28564;53.346;-6.554;2023-03-05T09:58:48;21;21;
40371;PMS5003;28564;53.346;-6.554;2023-03-05T10:03:52;27;20;
40371;PMS5003;28564;53.346;-6.554;2023-03-05T10:06:22;18;17;
40371;PMS5003;28564;53.346;-6.554;2023-03-05T10:08:52;24;23;
40371;PMS5003;28564;53.346;-6.554;2023-03-05T10:11:27;19;18;
40371;PMS5003;28564;53.346;-6.554;2023-03-05T10:14:02;31;26;
40371;PMS5003;28564;53.346;-6.554;2023-03-05T10:16:39;21;20;
40371;PMS5003;28564;53.346;-6.554;2023-03-05T10:19:22;22;19;
40371;PMS5003;28564;53.346;-6.554;2023-03-05T10:22:13;22;19;
40371;PMS5003;28564;53.346;-6.554;2023-03-05T10:24:49;21;20;
40371;PMS5003;28564;53.346;-6.554;2023-03-05T10:27:31;25;22;
40371;PMS5003;28564;53.346;-6.554;2023-03-05T10:30:11;19;16;
40371;PMS5003;28564;53.346;-6.554;2023-03-05T10:32:49;22;19;
40371;PMS5003;28564;53.346;-6.554;2023-03-05T10:35:34;25;21;
40371;PMS5003;28564;53.346;-6.554;2023-03-05T10:38:22;23;19;
40371;PMS5003;28564;53.346;-6.554;2023-03-05T10:41:02;21;19;
40371;PMS5003;28564;53.346;-6.554;2023-03-05T10:43:41;20;20;
40371;PMS5003;28564;53.346;-6.554;2023-03-05T10:46:18;23;20;
40371;PMS5003;28564;53.346;-6.554;2023-03-05T10:48:57;16;16;
40371;PMS5003;28564;53.346;-6.554;2023-03-05T10:51:30;29;27;
40371;PMS5003;28564;53.346;-6.554;2023-03-05T10:54:03;23;19;
40371;PMS5003;28564;53.346;-6.554;2023-03-05T10:56:40;22;19;
40371;PMS5003;28564;53.346;-6.554;2023-03-05T10:59:07;19;16;
40371;PMS5003;28564;53.346;-6.554;2023-03-05T11:01:34;22;19;
40371;PMS5003;28564;53.346;-6.554;2023-03-05T11:04:02;16;13;
40371;PMS5003;28564;53.346;-6.554;2023-03-05T11:06:32;18;16;
40371;PMS5003;28564;53.346;-6.554;2023-03-05T11:09:19;19;17;
40371;PMS5003;28564;53.346;-6.554;2023-03-05T11:12:16;23;18;
40371;PMS5003;28564;53.346;-6.554;2023-03-05T11:14:46;15;15;
40371;PMS5003;28564;53.346;-6.554;2023-03-05T11:17:29;16;14;
40371;PMS5003;28564;53.346;-6.554;2023-03-05T11:20:19;15;13;
40371;PMS5003;28564;53.346;-6.554;2023-03-05T11:23:03;13;11;
40371;PMS5003;28564;53.346;-6.554;2023-03-05T11:25:34;12;12;
40371;PMS5003;28564;53.346;-6.554;2023-03-05T11:28:17;11;11;
40371;PMS5003;28564;53.346;-6.554;2023-03-05T11:30:53;13;11;
40371;PMS5003;28564;53.346;-6.554;2023-03-05T11:33:22;11;11;
40371;PMS5003;28564;53.346;-6.554;2023-03-05T11:35:51;12;12;
40371;PMS5003;28564;53.346;-6.554;2023-03-05T11:38:43;12;11;
40371;PMS5003;28564;53.346;-6.554;2023-03-05T11:41:11;15;11;
40371;PMS5003;28564;53.346;-6.554;2023-03-05T11:43:39;13;11;
40371;PMS5003;28564;53.346;-6.554;2023-03-05T11:46:08;13;12;
40371;PMS5003;28564;53.346;-6.554;2023-03-05T11:48:38;10;10;
40371;PMS5003;28564;53.346;-6.554;2023-03-05T11:51:12;16;13;
40371;PMS5003;28564;53.346;-6.554;2023-03-05T11:53:45;11;10;
40371;PMS5003;28564;53.346;-6.554;2023-03-05T11:56:18;10;10;
40371;PMS5003;28564;53.346;-6.554;2023-03-05T11:58:50;11;11;
40371;PMS5003;28564;53.346;-6.554;2023-03-05T12:01:23;15;12;
40371;PMS5003;28564;53.346;-6.554;2023-03-05T12:03:53;13;11;
40371;PMS5003;28564;53.346;-6.554;2023-03-05T12:06:26;12;10;
40371;PMS5003;28564;53.346;-6.554;2023-03-05T12:08:59;18;15;
40371;PMS5003;28564;53.346;-6.554;2023-03-05T12:11:29;11;10;
40371;PMS5003;28564;53.346;-6.554;2023-03-05T12:13:58;11;10;
40371;PMS5003;28564;53.346;-6.554;2023-03-05T12:16:32;8;6;
40371;PMS5003;28564;53.346;-6.554;2023-03-05T12:20:11;9;9;
40371;PMS5003;28564;53.346;-6.554;2023-03-05T12:22:44;8;6;
40371;PMS5003;28564;53.346;-6.554;2023-03-05T12:25:34;10;7;
40371;PMS5003;28564;53.346;-6.554;2023-03-05T12:28:13;11;6;
40371;PMS5003;28564;53.346;-6.554;2023-03-05T12:30:57;9;8;
40371;PMS5003;28564;53.346;-6.554;2023-03-05T12:33:30;10;8;
40371;PMS5003;28564;53.346;-6.554;2023-03-05T12:37:07;7;6;
40371;PMS5003;28564;53.346;-6.554;2023-03-05T12:39:56;5;5;
40371;PMS5003;28564;53.346;-6.554;2023-03-05T12:43:00;6;6;
40371;PMS5003;28564;53.346;-6.554;2023-03-05T12:45:30;10;9;
40371;PMS5003;28564;53.346;-6.554;2023-03-05T12:49:26;12;9;
40371;PMS5003;28564;53.346;-6.554;2023-03-05T12:51:55;9;5;
40371;PMS5003;28564;53.346;-6.554;2023-03-05T12:54:26;7;7;
40371;PMS5003;28564;53.346;-6.554;2023-03-05T12:56:57;6;5;
40371;PMS5003;28564;53.346;-6.554;2023-03-05T12:59:28;3;3;
40371;PMS5003;28564;53.346;-6.554;2023-03-05T13:02:08;4;4;
40371;PMS5003;28564;53.346;-6.554;2023-03-05T13:04:46;2;2;
40371;PMS5003;28564;53.346;-6.554;2023-03-05T13:07:14;4;4;
40371;PMS5003;28564;53.346;-6.554;2023-03-05T13:09:50;7;5;
40371;PMS5003;28564;53.346;-6.554;2023-03-05T13:12:18;3;3;
40371;PMS5003;28564;53.346;-6.554;2023-03-05T13:14:46;9;4;
40371;PMS5003;28564;53.346;-6.554;2023-03-05T13:17:23;2;2;
40371;PMS5003;28564;53.346;-6.554;2023-03-05T13:19:55;2;2;
40371;PMS5003;28564;53.346;-6.554;2023-03-05T13:22:24;3;3;
40371;PMS5003;28564;53.346;-6.554;2023-03-05T13:25:02;9;9;
40371;PMS5003;28564;53.346;-6.554;2023-03-05T13:27:46;3;3;
40371;PMS5003;28564;53.346;-6.554;2023-03-05T13:30:21;2;1;
40371;PMS5003;28564;53.346;-6.554;2023-03-05T13:32:50;2;2;
40371;PMS5003;28564;53.346;-6.554;2023-03-05T13:35:20;4;4;
40371;PMS5003;28564;53.346;-6.554;2023-03-05T13:37:48;3;2;
40371;PMS5003;28564;53.346;-6.554;2023-03-05T13:40:18;3;3;
40371;PMS5003;28564;53.346;-6.554;2023-03-05T13:42:49;4;4;
40371;PMS5003;28564;53.346;-6.554;2023-03-05T13:45:21;2;2;
40371;PMS5003;28564;53.346;-6.554;2023-03-05T13:47:52;2;2;
40371;PMS5003;28564;53.346;-6.554;2023-03-05T13:50:22;3;3;
40371;PMS5003;28564;53.346;-6.554;2023-03-05T13:52:51;4;4;
40371;PMS5003;28564;53.346;-6.554;2023-03-05T13:55:19;2;2;
40371;PMS5003;28564;53.346;-6.554;2023-03-05T13:57:47;3;3;
40371;PMS5003;28564;53.346;-6.554;2023-03-05T14:00:25;3;3;
40371;PMS5003;28564;53.346;-6.554;2023-03-05T14:02:56;2;2;
40371;PMS5003;28564;53.346;-6.554;2023-03-05T14:05:26;4;4;
40371;PMS5003;28564;53.346;-6.554;2023-03-05T14:07:53;4;4;
40371;PMS5003;28564;53.346;-6.554;2023-03-05T14:10:25;8;7;
40371;PMS5003;28564;53.346;-6.554;2023-03-05T14:12:56;6;4;
40371;PMS5003;28564;53.346;-6.554;2023-03-05T14:15:26;6;5;
40371;PMS5003;28564;53.346;-6.554;2023-03-05T14:18:07;4;3;
40371;PMS5003;28564;53.346;-6.554;2023-03-05T14:20:56;8;6;
40371;PMS5003;28564;53.346;-6.554;2023-03-05T14:23:32;7;7;
40371;PMS5003;28564;53.346;-6.554;2023-03-05T14:26:14;3;3;
40371;PMS5003;28564;53.346;-6.554;2023-03-05T14:28:49;1;1;
40371;PMS5003;28564;53.346;-6.554;2023-03-05T14:31:18;4;2;
40371;PMS5003;28564;53.346;-6.554;2023-03-05T14:33:46;3;2;
40371;PMS5003;28564;53.346;-6.554;2023-03-05T14:36:19;5;5;
40371;PMS5003;28564;53.346;-6.554;2023-03-05T14:38:47;10;10;
40371;PMS5003;28564;53.346;-6.554;2023-03-05T14:41:19;7;7;
40371;PMS5003;28564;53.346;-6.554;2023-03-05T14:43:57;3;3;
40371;PMS5003;28564;53.346;-6.554;2023-03-05T14:46:24;2;2;
40371;PMS5003;28564;53.346;-6.554;2023-03-05T14:48:51;2;2;
40371;PMS5003;28564;53.346;-6.554;2023-03-05T14:51:18;1;1;
40371;PMS5003;28564;53.346;-6.554;2023-03-05T14:53:46;4;2;
40371;PMS5003;28564;53.346;-6.554;2023-03-05T14:56:16;1;1;
40371;PMS5003;28564;53.346;-6.554;2023-03-05T14:58:48;1;1;
40371;PMS5003;28564;53.346;-6.554;2023-03-05T15:01:15;3;2;
40371;PMS5003;28564;53.346;-6.554;2023-03-05T15:03:42;2;2;
40371;PMS5003;28564;53.346;-6.554;2023-03-05T15:06:14;1;1;
40371;PMS5003;28564;53.346;-6.554;2023-03-05T15:08:46;2;2;
40371;PMS5003;28564;53.346;-6.554;2023-03-05T15:11:13;3;1;
40371;PMS5003;28564;53.346;-6.554;2023-03-05T15:13:40;2;2;
40371;PMS5003;28564;53.346;-6.554;2023-03-05T15:16:09;4;2;
40371;PMS5003;28564;53.346;-6.554;2023-03-05T15:18:40;1;1;
40371;PMS5003;28564;53.346;-6.554;2023-03-05T15:21:07;2;2;
40371;PMS5003;28564;53.346;-6.554;2023-03-05T15:23:34;2;2;
40371;PMS5003;28564;53.346;-6.554;2023-03-05T15:26:01;2;2;
40371;PMS5003;28564;53.346;-6.554;2023-03-05T15:28:30;3;2;
40371;PMS5003;28564;53.346;-6.554;2023-03-05T15:30:58;3;3;
40371;PMS5003;28564;53.346;-6.554;2023-03-05T15:33:26;2;2;
40371;PMS5003;28564;53.346;-6.554;2023-03-05T15:35:54;3;3;
40371;PMS5003;28564;53.346;-6.554;2023-03-05T15:38:22;6;4;
40371;PMS5003;28564;53.346;-6.554;2023-03-05T15:40:49;10;8;
40371;PMS5003;28564;53.346;-6.554;2023-03-05T15:43:17;6;3;
40371;PMS5003;28564;53.346;-6.554;2023-03-05T15:45:45;3;3;
40371;PMS5003;28564;53.346;-6.554;2023-03-05T15:48:12;3;3;
40371;PMS5003;28564;53.346;-6.554;2023-03-05T15:50:39;2;2;
40371;PMS5003;28564;53.346;-6.554;2023-03-05T15:53:08;1;1;
40371;PMS5003;28564;53.346;-6.554;2023-03-05T15:55:37;2;2;
40371;PMS5003;28564;53.346;-6.554;2023-03-05T15:58:05;3;3;
40371;PMS5003;28564;53.346;-6.554;2023-03-05T16:00:33;5;4;
40371;PMS5003;28564;53.346;-6.554;2023-03-05T16:03:02;3;3;
40371;PMS5003;28564;53.346;-6.554;2023-03-05T16:05:29;1;1;
40371;PMS5003;28564;53.346;-6.554;2023-03-05T16:07:58;3;3;
40371;PMS5003;28564;53.346;-6.554;2023-03-05T16:10:27;2;2;
40371;PMS5003;28564;53.346;-6.554;2023-03-05T16:12:56;1;1;
40371;PMS5003;28564;53.346;-6.554;2023-03-05T16:15:27;3;3;
40371;PMS5003;28564;53.346;-6.554;2023-03-05T16:17:56;2;2;
40371;PMS5003;28564;53.346;-6.554;2023-03-05T16:20:27;3;2;
40371;PMS5003;28564;53.346;-6.554;2023-03-05T16:22:55;3;3;
40371;PMS5003;28564;53.346;-6.554;2023-03-05T16:25:22;4;4;
40371;PMS5003;28564;53.346;-6.554;2023-03-05T16:27:49;6;5;
40371;PMS5003;28564;53.346;-6.554;2023-03-05T16:30:16;4;4;
40371;PMS5003;28564;53.346;-6.554;2023-03-05T16:32:44;4;3;